createdAt,value
2022-10-06T00:02:23.459Z,101913.59
2022-10-06T00:04:49.929Z,101921.28
2022-10-06T00:07:17.052Z,101921.72
2022-10-06T00:09:43.480Z,101930.13
2022-10-06T00:12:10.507Z,101934.22
2022-10-06T00:14:37.535Z,101948.06
2022-10-06T00:17:04.207Z,101943.00
2022-10-06T00:19:31.081Z,101948.56
2022-10-06T00:21:57.653Z,101952.34
2022-10-06T00:24:24.028Z,101947.19
2022-10-06T00:26:50.606Z,101964.41
2022-10-06T00:29:16.954Z,101981.47
2022-10-06T00:31:43.654Z,101970.09
2022-10-06T00:34:10.270Z,101965.91
2022-10-06T00:36:37.200Z,101985.16
2022-10-06T00:39:03.770Z,101989.22
2022-10-06T00:41:31.183Z,101978.31
2022-10-06T00:43:58.732Z,101995.13
2022-10-06T00:46:47.916Z,101984.97
2022-10-06T00:49:25.837Z,102011.41
2022-10-06T00:51:57.659Z,102008.69
2022-10-06T00:54:25.243Z,102021.59
2022-10-06T00:56:52.445Z,102025.19
2022-10-06T00:59:19.965Z,102034.38
2022-10-06T01:02:11.401Z,102029.41
2022-10-06T01:04:43.470Z,102043.63
2022-10-06T01:07:10.018Z,102036.72
2022-10-06T01:09:36.661Z,102046.50
2022-10-06T01:12:07.070Z,102051.69
2022-10-06T01:14:36.583Z,102048.41
2022-10-06T01:17:09.513Z,102057.53
2022-10-06T01:19:47.875Z,102067.59
2022-10-06T01:22:16.376Z,102084.06
2022-10-06T01:24:45.989Z,102062.75
2022-10-06T01:27:15.722Z,102077.44
2022-10-06T01:29:42.214Z,102082.34
2022-10-06T01:32:09.520Z,102091.91
2022-10-06T01:34:35.974Z,102087.63
2022-10-06T01:37:02.314Z,102107.16
2022-10-06T01:39:28.679Z,102102.31
2022-10-06T01:41:55.406Z,102104.22
2022-10-06T01:44:21.815Z,102101.44
2022-10-06T01:46:48.217Z,102100.03
2022-10-06T01:49:14.578Z,102114.38
2022-10-06T01:51:41.643Z,102112.88
2022-10-06T01:54:07.995Z,102122.72
2022-10-06T01:56:34.364Z,102126.41
2022-10-06T01:59:00.737Z,102123.06
2022-10-06T02:01:27.615Z,102128.34
2022-10-06T02:03:54.090Z,102122.84
2022-10-06T02:06:20.524Z,102131.47
2022-10-06T02:08:47.269Z,102125.91
2022-10-06T02:11:14.201Z,102133.34
2022-10-06T02:13:41.236Z,102146.66
2022-10-06T02:16:09.131Z,102150.63
2022-10-06T02:18:36.501Z,102161.31
2022-10-06T02:21:03.950Z,102159.56
2022-10-06T02:23:31.161Z,102156.63
2022-10-06T02:26:05.842Z,102159.88
2022-10-06T02:28:32.876Z,102166.38
2022-10-06T02:31:08.318Z,102170.06
2022-10-06T02:33:36.183Z,102177.59
2022-10-06T02:36:03.581Z,102185.03
2022-10-06T02:38:32.373Z,102186.78
2022-10-06T02:41:00.117Z,102186.69
2022-10-06T02:43:29.952Z,102190.75
2022-10-06T02:45:58.237Z,102190.47
2022-10-06T02:48:26.319Z,102202.28
2022-10-06T02:51:07.799Z,102198.91
2022-10-06T02:53:36.020Z,102196.56
2022-10-06T02:56:05.745Z,102206.84
2022-10-06T02:58:33.013Z,102208.25
2022-10-06T03:01:08.342Z,102218.22
2022-10-06T03:03:35.799Z,102227.34
2022-10-06T03:06:23.850Z,102217.69
2022-10-06T03:09:07.917Z,102234.81
2022-10-06T03:11:40.491Z,102233.03
2022-10-06T03:14:07.505Z,102237.34
2022-10-06T03:16:37.122Z,102242.09
2022-10-06T03:19:03.592Z,102254.72
2022-10-06T03:21:32.833Z,102248.34
2022-10-06T03:24:00.175Z,102253.59
2022-10-06T03:26:35.383Z,102262.38
2022-10-06T03:29:01.944Z,102265.19
2022-10-06T03:31:29.195Z,102272.34
2022-10-06T03:33:58.577Z,102274.34
2022-10-06T03:36:27.893Z,102286.38
2022-10-06T03:38:54.264Z,102283.25
2022-10-06T03:41:22.843Z,102277.16
2022-10-06T03:43:50.781Z,102281.59
2022-10-06T03:46:20.982Z,102288.13
2022-10-06T03:48:49.383Z,102294.50
2022-10-06T03:51:17.556Z,102292.28
2022-10-06T03:53:45.627Z,102303.13
2022-10-06T03:56:14.501Z,102311.16
2022-10-06T03:58:43.618Z,102308.03
2022-10-06T04:01:12.810Z,102308.31
2022-10-06T04:03:39.274Z,102313.84
2022-10-06T04:06:07.333Z,102321.97
2022-10-06T04:08:34.947Z,102326.03
2022-10-06T04:11:06.864Z,102329.56
2022-10-06T04:13:33.434Z,102329.84
2022-10-06T04:16:09.685Z,102335.56
2022-10-06T04:18:36.353Z,102326.84
2022-10-06T04:21:02.736Z,102332.69
2022-10-06T04:23:29.169Z,102342.66
2022-10-06T04:25:59.842Z,102350.56
2022-10-06T04:28:26.808Z,102351.59
2022-10-06T04:31:00.931Z,102355.78
2022-10-06T04:33:27.776Z,102368.56
2022-10-06T04:36:15.264Z,102370.47
2022-10-06T04:38:41.633Z,102367.09
2022-10-06T04:41:12.108Z,102371.72
2022-10-06T04:43:38.885Z,102372.69
2022-10-06T04:46:23.882Z,102379.25
2022-10-06T04:48:53.825Z,102385.53
2022-10-06T04:51:22.103Z,102391.19
2022-10-06T04:53:49.080Z,102391.75
2022-10-06T04:56:24.258Z,102401.38
2022-10-06T04:58:52.729Z,102398.00
2022-10-06T05:01:21.666Z,102405.19
2022-10-06T05:03:50.395Z,102411.28
2022-10-06T05:06:19.792Z,102414.81
2022-10-06T05:08:54.310Z,102409.84
2022-10-06T05:11:25.597Z,102417.47
2022-10-06T05:13:57.067Z,102422.66
2022-10-06T05:16:25.300Z,102423.63
2022-10-06T05:18:51.954Z,102425.34
2022-10-06T05:21:23.991Z,102428.88
2022-10-06T05:23:50.885Z,102436.34
2022-10-06T05:26:20.483Z,102440.41
2022-10-06T05:28:47.788Z,102444.47
2022-10-06T05:31:23.278Z,102446.38
2022-10-06T05:33:49.861Z,102448.25
2022-10-06T05:36:19.093Z,102447.78
2022-10-06T05:38:46.245Z,102459.91
2022-10-06T05:41:32.904Z,102469.97
2022-10-06T05:43:59.922Z,102472.47
2022-10-06T05:46:28.723Z,102473.97
2022-10-06T05:48:59.751Z,102483.78
2022-10-06T05:51:31.031Z,102483.59
2022-10-06T05:54:01.414Z,102481.72
2022-10-06T05:56:30.444Z,102480.91
2022-10-06T05:58:58.619Z,102489.69
2022-10-06T06:01:35.947Z,102499.44
2022-10-06T06:04:05.136Z,102496.19
2022-10-06T06:06:38.342Z,102498.09
2022-10-06T06:09:15.182Z,102498.81
2022-10-06T06:11:44.750Z,102508.38
2022-10-06T06:14:14.290Z,102517.38
2022-10-06T06:16:42.683Z,102513.78
2022-10-06T06:19:11.466Z,102523.06
2022-10-06T06:21:38.398Z,102520.69
2022-10-06T06:24:05.482Z,102528.63
2022-10-06T06:26:34.764Z,102526.66
2022-10-06T06:29:03.847Z,102526.44
2022-10-06T06:31:33.404Z,102533.59
2022-10-06T06:34:02.751Z,102535.78
2022-10-06T06:36:36.016Z,102542.16
2022-10-06T06:39:10.747Z,102547.09
2022-10-06T06:41:42.710Z,102551.06
2022-10-06T06:44:11.395Z,102552.72
2022-10-06T06:46:39.073Z,102554.19
2022-10-06T06:49:07.225Z,102559.03
2022-10-06T06:51:37.348Z,102569.06
2022-10-06T06:54:04.852Z,102575.47
2022-10-06T06:56:34.945Z,102581.34
2022-10-06T06:59:03.487Z,102577.94
2022-10-06T07:01:30.578Z,102578.97
2022-10-06T07:03:59.309Z,102583.09
2022-10-06T07:06:29.110Z,102588.03
2022-10-06T07:08:58.288Z,102588.50
2022-10-06T07:11:27.454Z,102588.59
2022-10-06T07:14:16.139Z,102591.19
2022-10-06T07:17:01.162Z,102603.63
2022-10-06T07:19:45.889Z,102612.28
2022-10-06T07:22:36.670Z,102622.16
2022-10-06T07:25:11.418Z,102625.81
2022-10-06T07:27:44.792Z,102625.38
2022-10-06T07:30:17.902Z,102632.03
2022-10-06T07:32:45.446Z,102626.44
2022-10-06T07:35:12.332Z,102631.81
2022-10-06T07:37:40.568Z,102642.56
2022-10-06T07:40:08.724Z,102637.44
2022-10-06T07:42:48.896Z,102653.41
2022-10-06T07:45:35.540Z,102654.66
2022-10-06T07:48:03.592Z,102651.63
2022-10-06T07:50:30.436Z,102658.97
2022-10-06T07:52:56.854Z,102649.34
2022-10-06T07:55:23.815Z,102662.66
2022-10-06T07:57:51.276Z,102659.53
2022-10-06T08:00:20.304Z,102671.16
2022-10-06T08:02:47.233Z,102670.44
2022-10-06T08:05:14.005Z,102681.63
2022-10-06T08:07:41.124Z,102671.59
2022-10-06T08:10:07.808Z,102683.47
2022-10-06T08:12:34.525Z,102681.50
2022-10-06T08:15:06.087Z,102687.34
2022-10-06T08:17:35.613Z,102689.00
2022-10-06T08:20:03.025Z,102698.53
2022-10-06T08:22:30.127Z,102695.44
2022-10-06T08:25:05.723Z,102698.00
2022-10-06T08:27:34.765Z,102711.56
2022-10-06T08:30:01.217Z,102711.09
2022-10-06T08:32:27.712Z,102720.34
2022-10-06T08:34:54.370Z,102720.72
2022-10-06T08:37:23.698Z,102715.59
2022-10-06T08:39:54.036Z,102711.03
2022-10-06T08:42:42.215Z,102724.81
2022-10-06T08:45:15.608Z,102728.31
2022-10-06T08:47:52.123Z,102723.41
2022-10-06T08:50:21.219Z,102721.13
2022-10-06T08:53:01.535Z,102724.81
2022-10-06T08:55:37.450Z,102724.06
2022-10-06T08:58:40.582Z,102733.94
2022-10-06T09:01:33.596Z,102734.75
2022-10-06T09:04:03.665Z,102737.44
2022-10-06T09:06:46.125Z,102740.50
2022-10-06T09:09:53.430Z,102739.84
2022-10-06T09:12:51.951Z,102738.16
2022-10-06T09:15:19.188Z,102738.69
2022-10-06T09:17:50.199Z,102746.06
2022-10-06T09:20:25.668Z,102757.69
2022-10-06T09:22:55.506Z,102761.91
2022-10-06T09:25:28.701Z,102765.97
2022-10-06T09:27:57.432Z,102768.66
2022-10-06T09:30:24.584Z,102771.81
2022-10-06T09:33:03.049Z,102777.88
2022-10-06T09:35:31.855Z,102772.81
2022-10-06T09:38:08.314Z,102773.16
2022-10-06T09:40:41.869Z,102774.78
2022-10-06T09:43:17.106Z,102784.31
2022-10-06T09:45:43.854Z,102779.63
2022-10-06T09:48:25.445Z,102777.34
2022-10-06T09:51:16.102Z,102785.13
2022-10-06T09:53:43.985Z,102784.81
2022-10-06T09:56:18.843Z,102787.88
2022-10-06T09:58:56.729Z,102791.78
2022-10-06T10:01:31.720Z,102787.72
2022-10-06T10:04:21.294Z,102792.16
2022-10-06T10:06:48.294Z,102788.88
2022-10-06T10:09:22.193Z,102786.72
2022-10-06T10:12:26.243Z,102798.56
2022-10-06T10:15:04.408Z,102797.34
2022-10-06T10:17:36.465Z,102791.97
2022-10-06T10:20:08.277Z,102792.19
2022-10-06T10:22:37.841Z,102793.34
2022-10-06T10:25:07.157Z,102801.25
2022-10-06T10:27:45.365Z,102803.91
2022-10-06T10:30:14.698Z,102801.31
2022-10-06T10:33:08.945Z,102805.88
2022-10-06T10:35:51.009Z,102806.97
2022-10-06T10:38:22.541Z,102806.25
2022-10-06T10:41:01.345Z,102802.06
2022-10-06T10:43:42.628Z,102803.53
2022-10-06T10:46:18.930Z,102807.03
2022-10-06T10:48:55.319Z,102803.53
2022-10-06T10:51:32.873Z,102812.19
2022-10-06T10:54:38.501Z,102822.38
2022-10-06T10:57:12.069Z,102805.22
2022-10-06T10:59:52.423Z,102821.41
2022-10-06T11:02:21.298Z,102820.84
2022-10-06T11:04:51.761Z,102825.03
2022-10-06T11:07:42.976Z,102823.94
2022-10-06T11:10:19.798Z,102826.31
2022-10-06T11:13:10.543Z,102838.47
2022-10-06T11:15:56.520Z,102832.16
2022-10-06T11:18:35.017Z,102827.31
2022-10-06T11:21:43.029Z,102846.00
2022-10-06T11:24:23.544Z,102844.69
2022-10-06T11:27:08.197Z,102840.00
2022-10-06T11:29:43.185Z,102837.50
2022-10-06T11:32:20.114Z,102839.34
2022-10-06T11:34:50.319Z,102842.16
2022-10-06T11:37:40.289Z,102847.06
2022-10-06T11:40:25.139Z,102845.31
2022-10-06T11:42:57.279Z,102835.13
2022-10-06T11:45:49.860Z,102836.16
2022-10-06T11:48:27.882Z,102843.25
2022-10-06T11:50:58.015Z,102831.66
2022-10-06T11:53:39.798Z,102831.31
2022-10-06T11:56:23.920Z,102833.66
2022-10-06T11:58:55.975Z,102838.22
2022-10-06T12:01:31.300Z,102839.97
2022-10-06T12:04:13.245Z,102835.38
2022-10-06T12:06:42.330Z,102839.91
2022-10-06T12:09:23.892Z,102834.34
2022-10-06T12:12:01.241Z,102837.00
2022-10-06T12:17:46.290Z,102838.53
2022-10-06T12:20:18.667Z,102840.69
2022-10-06T12:22:52.176Z,102829.38
2022-10-06T12:25:25.082Z,102831.72
2022-10-06T12:28:30.896Z,102827.78
2022-10-06T12:31:37.315Z,102825.72
2022-10-06T12:34:04.983Z,102827.41
2022-10-06T12:36:32.111Z,102824.75
2022-10-06T12:39:07.302Z,102841.63
2022-10-06T12:42:00.054Z,102825.91
2022-10-06T12:44:35.477Z,102832.38
2022-10-06T12:47:07.056Z,102826.25
2022-10-06T12:49:37.013Z,102835.91
2022-10-06T12:52:31.350Z,102819.94
2022-10-06T12:55:21.042Z,102830.16
2022-10-06T12:57:52.368Z,102822.78
2022-10-06T13:00:34.541Z,102819.22
2022-10-06T13:03:03.258Z,102816.06
2022-10-06T13:05:30.136Z,102823.25
2022-10-06T13:08:02.088Z,102833.56
2022-10-06T13:10:29.713Z,102818.09
2022-10-06T13:12:58.115Z,102816.81
2022-10-06T13:18:04.000Z,102814.28
2022-10-06T13:20:37.372Z,102815.19
2022-10-06T13:23:18.869Z,102824.50
2022-10-06T13:25:48.994Z,102809.44
2022-10-06T13:28:22.809Z,102804.53
2022-10-06T13:30:54.985Z,102808.94
2022-10-06T13:33:23.497Z,102821.28
2022-10-06T13:35:52.866Z,102816.59
2022-10-06T13:38:20.345Z,102811.34
2022-10-06T13:41:17.631Z,102829.44
2022-10-06T13:43:59.818Z,102818.22
2022-10-06T13:46:29.623Z,102832.09
2022-10-06T13:49:03.411Z,102801.63
2022-10-06T13:51:32.159Z,102812.69
2022-10-06T13:54:01.258Z,102811.06
2022-10-06T13:56:39.153Z,102814.16
2022-10-06T13:59:34.452Z,102808.94
2022-10-06T14:02:20.829Z,102806.94
2022-10-06T14:05:27.409Z,102806.81
2022-10-06T14:07:57.794Z,102819.13
2022-10-06T14:10:31.266Z,102814.50
2022-10-06T14:13:01.106Z,102815.78
2022-10-06T14:15:38.911Z,102819.88
2022-10-06T14:18:06.021Z,102812.50
2022-10-06T14:20:47.905Z,102804.94
2022-10-06T14:23:52.453Z,102802.91
2022-10-06T14:26:24.281Z,102811.44
2022-10-06T14:28:52.880Z,102796.44
2022-10-06T14:31:21.360Z,102804.66
2022-10-06T14:33:52.174Z,102800.09
2022-10-06T14:36:23.149Z,102801.25
2022-10-06T14:38:51.295Z,102808.25
2022-10-06T14:41:24.602Z,102810.06
2022-10-06T14:43:58.654Z,102811.72
2022-10-06T14:46:25.392Z,102805.38
2022-10-06T14:48:52.248Z,102813.69
2022-10-06T14:51:19.464Z,102808.69
2022-10-06T14:53:54.281Z,102801.63
2022-10-06T14:56:23.480Z,102801.34
2022-10-06T14:58:51.282Z,102797.59
2022-10-06T15:01:20.241Z,102786.94
2022-10-06T15:03:57.213Z,102790.00
2022-10-06T15:06:42.759Z,102791.78
2022-10-06T15:09:09.657Z,102790.81
2022-10-06T15:11:36.997Z,102786.63
2022-10-06T15:14:04.584Z,102789.22
2022-10-06T15:16:33.330Z,102779.00
2022-10-06T15:19:00.811Z,102789.09
2022-10-06T15:21:31.294Z,102786.78
2022-10-06T15:24:04.629Z,102781.56
2022-10-06T15:26:50.029Z,102777.06
2022-10-06T15:29:17.473Z,102778.38
2022-10-06T15:31:46.554Z,102779.97
2022-10-06T15:34:14.654Z,102775.47
2022-10-06T15:36:42.356Z,102774.66
2022-10-06T15:39:16.027Z,102784.59
2022-10-06T15:41:43.641Z,102776.78
2022-10-06T15:44:11.195Z,102774.38
2022-10-06T15:46:40.294Z,102767.00
2022-10-06T15:49:09.026Z,102771.81
2022-10-06T15:51:50.196Z,102773.00
2022-10-06T15:54:20.675Z,102780.59
2022-10-06T15:56:49.278Z,102780.44
2022-10-06T15:59:16.678Z,102781.56
2022-10-06T16:01:46.767Z,102786.06
2022-10-06T16:04:40.513Z,102785.25
2022-10-06T16:07:12.086Z,102783.78
2022-10-06T16:09:43.254Z,102781.88
2022-10-06T16:12:12.577Z,102779.72
2022-10-06T16:14:39.197Z,102775.94
2022-10-06T16:17:06.923Z,102773.63
2022-10-06T16:19:36.706Z,102779.28
2022-10-06T16:22:04.126Z,102774.72
2022-10-06T16:24:31.243Z,102768.41
2022-10-06T16:26:59.742Z,102761.53
2022-10-06T16:29:26.990Z,102769.13
2022-10-06T16:31:53.641Z,102767.31
2022-10-06T16:34:20.203Z,102759.81
2022-10-06T16:36:46.606Z,102765.31
2022-10-06T16:39:15.908Z,102765.31
2022-10-06T16:41:43.073Z,102780.81
2022-10-06T16:44:09.798Z,102775.59
2022-10-06T16:46:36.703Z,102776.78
2022-10-06T16:49:04.355Z,102773.19
2022-10-06T16:51:34.487Z,102776.41
2022-10-06T16:54:03.265Z,102782.94
2022-10-06T16:56:30.867Z,102780.59
2022-10-06T16:59:04.625Z,102777.44
2022-10-06T17:01:34.646Z,102778.06
2022-10-06T17:04:04.998Z,102774.56
2022-10-06T17:06:35.777Z,102776.34
2022-10-06T17:09:02.321Z,102779.06
2022-10-06T17:11:28.690Z,102785.66
2022-10-06T17:13:57.883Z,102781.97
2022-10-06T17:16:26.923Z,102786.97
2022-10-06T17:18:55.675Z,102776.09
2022-10-06T17:21:44.453Z,102772.50
2022-10-06T17:24:09.394Z,102778.00
2022-10-06T17:26:38.736Z,102780.34
2022-10-06T17:29:07.433Z,102781.66
2022-10-06T17:31:37.074Z,102772.84
2022-10-06T17:34:11.355Z,102776.25
2022-10-06T17:36:43.609Z,102774.63
2022-10-06T17:39:15.833Z,102779.59
2022-10-06T17:41:45.577Z,102777.06
2022-10-06T17:44:14.173Z,102776.47
2022-10-06T17:46:42.558Z,102770.06
2022-10-06T17:49:10.844Z,102769.47
2022-10-06T17:51:40.470Z,102768.69
2022-10-06T17:54:12.085Z,102771.38
2022-10-06T17:56:39.206Z,102766.91
2022-10-06T17:59:08.030Z,102767.25
2022-10-06T18:01:35.685Z,102773.59
2022-10-06T18:04:04.758Z,102776.94
2022-10-06T18:06:33.779Z,102764.34
2022-10-06T18:09:02.297Z,102766.44
2022-10-06T18:11:35.643Z,102763.88
2022-10-06T18:14:13.117Z,102766.25
2022-10-06T18:17:00.714Z,102764.19
2022-10-06T18:19:32.943Z,102762.78
2022-10-06T18:22:10.624Z,102765.91
2022-10-06T18:24:38.247Z,102759.44
2022-10-06T18:27:06.299Z,102756.84
2022-10-06T18:29:34.715Z,102763.25
2022-10-06T18:32:51.052Z,102752.41
2022-10-06T18:37:35.128Z,102755.22
2022-10-06T18:40:05.738Z,102761.06
2022-10-06T18:42:32.469Z,102760.34
2022-10-06T18:45:17.635Z,102766.94
2022-10-06T18:48:02.595Z,102767.59
2022-10-06T18:50:28.957Z,102758.63
2022-10-06T18:52:56.833Z,102763.91
2022-10-06T18:55:23.467Z,102761.25
2022-10-06T18:57:50.319Z,102756.91
2022-10-06T19:00:17.447Z,102762.72
2022-10-06T19:02:48.113Z,102767.31
2022-10-06T19:05:15.089Z,102756.19
2022-10-06T19:07:41.844Z,102750.91
2022-10-06T19:10:08.651Z,102761.06
2022-10-06T19:12:34.988Z,102745.06
2022-10-06T19:15:01.469Z,102744.78
2022-10-06T19:17:28.606Z,102750.22
2022-10-06T19:19:55.238Z,102750.31
2022-10-06T19:22:24.396Z,102752.69
2022-10-06T19:24:51.423Z,102749.69
2022-10-06T19:27:24.854Z,102757.00
2022-10-06T19:29:54.015Z,102762.44
2022-10-06T19:32:27.156Z,102755.91
2022-10-06T19:34:58.618Z,102760.25
2022-10-06T19:37:27.623Z,102761.13
2022-10-06T19:39:54.072Z,102756.78
2022-10-06T19:42:38.970Z,102749.38
2022-10-06T19:45:06.494Z,102745.69
2022-10-06T19:47:33.301Z,102754.13
2022-10-06T19:50:03.722Z,102741.38
2022-10-06T19:52:32.686Z,102744.75
2022-10-06T19:54:59.877Z,102744.81
2022-10-06T19:57:28.762Z,102750.38
2022-10-06T19:59:55.327Z,102743.22
2022-10-06T20:02:21.958Z,102745.84
2022-10-06T20:04:48.430Z,102742.19
2022-10-06T20:07:14.830Z,102739.41
2022-10-06T20:09:41.223Z,102743.66
2022-10-06T20:12:07.639Z,102737.06
2022-10-06T20:14:34.046Z,102743.66
2022-10-06T20:17:00.700Z,102740.94
2022-10-06T20:19:27.132Z,102752.31
2022-10-06T20:21:53.630Z,102749.84
2022-10-06T20:24:22.818Z,102746.94
2022-10-06T20:26:50.697Z,102744.97
2022-10-06T20:29:20.401Z,102753.41
2022-10-06T20:31:49.622Z,102742.31
2022-10-06T20:34:19.763Z,102744.19
2022-10-06T20:36:47.953Z,102736.16
2022-10-06T20:39:37.582Z,102730.16
2022-10-06T20:42:09.456Z,102740.34
2022-10-06T20:44:40.478Z,102746.00
2022-10-06T20:47:08.714Z,102735.75
2022-10-06T20:49:35.075Z,102744.88
2022-10-06T20:52:02.747Z,102732.19
2022-10-06T20:54:34.880Z,102728.59
2022-10-06T20:57:04.087Z,102720.75
2022-10-06T20:59:31.921Z,102722.81
2022-10-06T21:02:01.575Z,102721.16
2022-10-06T21:04:28.352Z,102725.72
2022-10-06T21:06:54.783Z,102722.94
2022-10-06T21:09:21.735Z,102719.44
2022-10-06T21:11:49.151Z,102712.09
2022-10-06T21:14:16.155Z,102710.47
2022-10-06T21:16:44.577Z,102702.56
2022-10-06T21:19:16.363Z,102707.25
2022-10-06T21:21:45.647Z,102698.41
2022-10-06T21:24:12.100Z,102698.59
2022-10-06T21:26:39.073Z,102701.06
2022-10-06T21:29:05.660Z,102692.94
2022-10-06T21:31:33.041Z,102698.59
2022-10-06T21:34:01.169Z,102695.81
2022-10-06T21:36:31.254Z,102691.03
2022-10-06T21:38:59.960Z,102694.75
2022-10-06T21:41:32.147Z,102700.16
2022-10-06T21:44:04.187Z,102695.38
2022-10-06T21:46:34.873Z,102689.44
2022-10-06T21:49:02.658Z,102689.84
2022-10-06T21:51:31.114Z,102684.78
2022-10-06T21:53:59.421Z,102683.47
2022-10-06T21:56:27.788Z,102680.28
2022-10-06T21:58:55.833Z,102677.00
2022-10-06T22:01:26.218Z,102675.50
2022-10-06T22:03:53.070Z,102669.44
2022-10-06T22:06:20.474Z,102667.91
2022-10-06T22:08:48.132Z,102656.56
2022-10-06T22:11:16.039Z,102662.22
2022-10-06T22:13:48.764Z,102656.09
2022-10-06T22:16:18.737Z,102650.88
2022-10-06T22:18:45.603Z,102652.75
2022-10-06T22:21:18.812Z,102647.44
2022-10-06T22:23:47.906Z,102649.25
2022-10-06T22:26:16.128Z,102647.53
2022-10-06T22:28:47.741Z,102651.25
2022-10-06T22:31:15.913Z,102643.13
2022-10-06T22:33:44.062Z,102648.59
2022-10-06T22:36:13.430Z,102643.13
2022-10-06T22:38:40.326Z,102640.59
2022-10-06T22:41:10.133Z,102634.44
2022-10-06T22:43:36.792Z,102631.09
2022-10-06T22:46:04.561Z,102623.03
2022-10-06T22:48:31.028Z,102618.75
2022-10-06T22:50:58.269Z,102625.19
2022-10-06T22:53:26.383Z,102615.44
2022-10-06T22:55:52.860Z,102614.44
2022-10-06T22:58:19.381Z,102616.13
2022-10-06T23:00:45.918Z,102617.88
2022-10-06T23:03:12.787Z,102612.47
2022-10-06T23:05:39.756Z,102605.97
2022-10-06T23:08:07.376Z,102614.88
2022-10-06T23:10:34.956Z,102612.13
2022-10-06T23:13:02.260Z,102606.84
2022-10-06T23:15:28.982Z,102598.44
2022-10-06T23:17:55.422Z,102601.88
2022-10-06T23:20:22.351Z,102601.66
2022-10-06T23:22:48.681Z,102599.66
2022-10-06T23:25:15.140Z,102596.25
2022-10-06T23:27:41.792Z,102592.16
2022-10-06T23:30:09.127Z,102596.03
2022-10-06T23:32:37.373Z,102591.84
2022-10-06T23:35:04.430Z,102589.47
2022-10-06T23:37:30.826Z,102585.13
2022-10-06T23:39:57.210Z,102583.47
2022-10-06T23:42:23.532Z,102577.25
2022-10-06T23:44:49.895Z,102574.56
2022-10-06T23:47:16.246Z,102568.16
2022-10-06T23:49:43.539Z,102574.56
2022-10-06T23:52:10.524Z,102577.31
2022-10-06T23:54:36.878Z,102578.16
2022-10-06T23:57:03.716Z,102582.47
2022-10-06T23:59:31.394Z,102564.28
